Rustenburg, South Africa
Current Conditions -  °F | °C
As of 6:00 PM on Tuesday 21 Oct 2014 (Local Time) from FALA Reporting Station
Clear Clear  
Wind Chill: 84°   Ceiling: Unl
Heat Index: 84°   Visibility: 6mi
Dew Point: 36°   Wind: 13mph
Humidity: 18%   Direction: 320°NW
Pressure: 30.15"   Gusts: NA
Location:  25.65°S, 27.24°E
Report Text: FALA 211600Z 32011KT 290V350 CAVOK 29/02 Q1021 NOSIG
Loading
Personal Weather Stations






























Interactive Weather Map
Tropical Storm Tracking
New forecast layout! Learn more

10-Day Weather Forecast

Advertisements
Track Severe Weather on mobile